ACA033 CYVR-YSSY
Flight info
| Callsign | ACA033 |
|---|---|
| Flight time | N/A |
| Altitude | 32000 |
| Route | DCT TOU DCT SEDAR DCT HEKAB A332 AUNTI/N0481F340 R463 APACK DCT CHOKO B326 NIXEE DCT 18N165W 11N172W 05N178W/N0481F360 01N178E 05S173E 07S172E 14S168E/N0477F380 17S165E 19S163E DCT HARVS DCT IDNER H98 SANAD H91 IGDAM H652 TESAT DCT |
| Aircraft | B77L/H-SDE1E2E3FGHIJ2J3J4J5M1RWXY/LB1D1 |
Departure
| Time | N/A |
|---|---|
| Airport | Vancouver International Airport (CYVR) |
Arrival
| Time | 2026-05-03 20:52 |
|---|---|
| Airport | Sydney Kingsford Smith International Airport (YSSY) |
| Time | Latitude | Longitude | Altitude | Speed | Heading |
|---|---|---|---|---|---|
| 2026-05-03 20:15 | -31.19376 | 151.54078 | 38187 ft | 434 kts | 222° |
| 2026-05-03 20:15 | -31.24614 | 151.50576 | 38193 ft | 434 kts | 223° |
| 2026-05-03 20:16 | -31.29858 | 151.47064 | 38183 ft | 434 kts | 223° |
| 2026-05-03 20:16 | -31.35090 | 151.43558 | 38218 ft | 433 kts | 223° |
| 2026-05-03 20:17 | -31.40461 | 151.40297 | 38193 ft | 447 kts | 215° |
| 2026-05-03 20:17 | -31.46319 | 151.37689 | 38183 ft | 451 kts | 213° |
| 2026-05-03 20:18 | -31.52194 | 151.35123 | 38181 ft | 450 kts | 214° |
| 2026-05-03 20:18 | -31.58053 | 151.32528 | 38197 ft | 451 kts | 214° |
| 2026-05-03 20:19 | -31.63925 | 151.29903 | 38168 ft | 451 kts | 214° |
| 2026-05-03 20:19 | -31.69789 | 151.27274 | 38163 ft | 452 kts | 214° |
| 2026-05-03 20:20 | -31.75663 | 151.24640 | 38176 ft | 451 kts | 214° |
| 2026-05-03 20:20 | -31.81537 | 151.22001 | 38168 ft | 451 kts | 215° |
| 2026-05-03 20:21 | -31.87413 | 151.19357 | 38161 ft | 452 kts | 214° |
| 2026-05-03 20:21 | -31.93256 | 151.16727 | 38154 ft | 452 kts | 215° |
| 2026-05-03 20:22 | -31.99147 | 151.14080 | 38145 ft | 453 kts | 214° |
| 2026-05-03 20:22 | -32.05059 | 151.11430 | 38149 ft | 454 kts | 215° |
| 2026-05-03 20:22 | -32.08018 | 151.10103 | 37911 ft | 457 kts | 214° |
| 2026-05-03 20:23 | -32.11026 | 151.08745 | 37165 ft | 463 kts | 214° |
| 2026-05-03 20:23 | -32.14022 | 151.07402 | 36517 ft | 460 kts | 214° |
| 2026-05-03 20:23 | -32.17014 | 151.06059 | 35835 ft | 458 kts | 213° |
| 2026-05-03 20:23 | -32.19998 | 151.04718 | 35065 ft | 459 kts | 213° |
| 2026-05-03 20:24 | -32.22990 | 151.03368 | 34293 ft | 462 kts | 213° |
| 2026-05-03 20:24 | -32.26003 | 151.02003 | 33348 ft | 465 kts | 212° |
| 2026-05-03 20:24 | -32.29033 | 151.00635 | 32451 ft | 467 kts | 212° |
| 2026-05-03 20:24 | -32.32078 | 150.99261 | 31591 ft | 469 kts | 211° |
| 2026-05-03 20:25 | -32.35115 | 150.97894 | 30991 ft | 465 kts | 211° |
| 2026-05-03 20:25 | -32.38089 | 150.96555 | 30394 ft | 461 kts | 210° |
| 2026-05-03 20:25 | -32.41076 | 150.95205 | 29719 ft | 457 kts | 210° |
| 2026-05-03 20:25 | -32.44034 | 150.93866 | 29047 ft | 453 kts | 210° |
| 2026-05-03 20:26 | -32.46983 | 150.92620 | 28436 ft | 452 kts | 204° |
| 2026-05-03 20:26 | -32.50102 | 150.91908 | 27819 ft | 460 kts | 194° |
| 2026-05-03 20:26 | -32.53311 | 150.91771 | 27246 ft | 464 kts | 185° |
| 2026-05-03 20:26 | -32.56534 | 150.92209 | 26678 ft | 466 kts | 178° |
| 2026-05-03 20:27 | -32.59725 | 150.92835 | 26098 ft | 463 kts | 176° |
| 2026-05-03 20:27 | -32.62888 | 150.93471 | 25525 ft | 459 kts | 176° |
| 2026-05-03 20:27 | -32.66030 | 150.94080 | 24988 ft | 454 kts | 176° |
| 2026-05-03 20:27 | -32.69147 | 150.94661 | 24422 ft | 451 kts | 176° |
| 2026-05-03 20:28 | -32.72237 | 150.95221 | 23856 ft | 448 kts | 176° |
| 2026-05-03 20:28 | -32.75306 | 150.95773 | 23226 ft | 445 kts | 176° |
| 2026-05-03 20:28 | -32.78317 | 150.96315 | 22648 ft | 441 kts | 176° |
| 2026-05-03 20:28 | -32.81337 | 150.96855 | 22092 ft | 436 kts | 175° |
| 2026-05-03 20:29 | -32.84326 | 150.97385 | 21560 ft | 432 kts | 175° |
| 2026-05-03 20:29 | -32.87283 | 150.97908 | 21028 ft | 428 kts | 175° |
| 2026-05-03 20:29 | -32.90219 | 150.98428 | 20509 ft | 424 kts | 175° |
| 2026-05-03 20:29 | -32.93128 | 150.98943 | 20011 ft | 420 kts | 174° |
| 2026-05-03 20:30 | -32.96011 | 150.99454 | 19476 ft | 417 kts | 174° |
| 2026-05-03 20:30 | -32.98873 | 150.99962 | 18968 ft | 414 kts | 174° |
| 2026-05-03 20:30 | -33.01718 | 151.00469 | 18444 ft | 412 kts | 173° |
| 2026-05-03 20:30 | -33.04542 | 151.00973 | 17865 ft | 409 kts | 173° |
| 2026-05-03 20:31 | -33.07339 | 151.01472 | 17328 ft | 405 kts | 173° |
| 2026-05-03 20:31 | -33.10110 | 151.01967 | 16811 ft | 400 kts | 173° |
| 2026-05-03 20:31 | -33.12849 | 151.02456 | 16308 ft | 396 kts | 173° |
| 2026-05-03 20:31 | -33.15556 | 151.02940 | 15816 ft | 391 kts | 173° |
| 2026-05-03 20:32 | -33.18235 | 151.03418 | 15325 ft | 387 kts | 174° |
| 2026-05-03 20:32 | -33.20884 | 151.03892 | 14843 ft | 383 kts | 174° |
| 2026-05-03 20:32 | -33.23505 | 151.04361 | 14352 ft | 379 kts | 174° |
| 2026-05-03 20:32 | -33.26065 | 151.04837 | 13888 ft | 375 kts | 173° |
| 2026-05-03 20:33 | -33.28634 | 151.05331 | 13336 ft | 372 kts | 173° |
| 2026-05-03 20:33 | -33.31186 | 151.05824 | 12850 ft | 369 kts | 173° |
| 2026-05-03 20:33 | -33.33713 | 151.06312 | 12378 ft | 367 kts | 173° |
| 2026-05-03 20:33 | -33.36218 | 151.06793 | 11938 ft | 364 kts | 173° |
| 2026-05-03 20:34 | -33.38720 | 151.07273 | 11444 ft | 363 kts | 173° |
| 2026-05-03 20:34 | -33.41212 | 151.07751 | 10987 ft | 362 kts | 173° |
| 2026-05-03 20:34 | -33.43659 | 151.08221 | 10781 ft | 351 kts | 173° |
| 2026-05-03 20:34 | -33.46036 | 151.08678 | 10570 ft | 341 kts | 173° |
| 2026-05-03 20:35 | -33.48342 | 151.09122 | 10394 ft | 330 kts | 173° |
| 2026-05-03 20:35 | -33.50574 | 151.09553 | 10248 ft | 319 kts | 173° |
| 2026-05-03 20:35 | -33.52731 | 151.09969 | 10108 ft | 309 kts | 173° |
| 2026-05-03 20:35 | -33.54822 | 151.10372 | 9935 ft | 300 kts | 173° |
| 2026-05-03 20:36 | -33.56878 | 151.10767 | 9476 ft | 300 kts | 173° |
| 2026-05-03 20:36 | -33.58942 | 151.11161 | 9005 ft | 301 kts | 172° |
| 2026-05-03 20:36 | -33.60982 | 151.11553 | 8592 ft | 300 kts | 172° |
| 2026-05-03 20:36 | -33.63036 | 151.11955 | 8194 ft | 299 kts | 172° |
| 2026-05-03 20:37 | -33.65088 | 151.12361 | 8019 ft | 302 kts | 172° |
| 2026-05-03 20:37 | -33.67180 | 151.12775 | 8014 ft | 305 kts | 172° |
| 2026-05-03 20:37 | -33.69271 | 151.13189 | 8004 ft | 303 kts | 172° |
| 2026-05-03 20:37 | -33.71339 | 151.13596 | 7992 ft | 299 kts | 172° |
| 2026-05-03 20:38 | -33.73389 | 151.13993 | 8006 ft | 298 kts | 172° |
| 2026-05-03 20:38 | -33.75433 | 151.14387 | 8000 ft | 299 kts | 172° |
| 2026-05-03 20:38 | -33.77489 | 151.14786 | 8006 ft | 300 kts | 172° |
| 2026-05-03 20:38 | -33.79554 | 151.15186 | 8002 ft | 300 kts | 172° |
| 2026-05-03 20:39 | -33.81600 | 151.15414 | 7905 ft | 292 kts | 187° |
| 2026-05-03 20:39 | -33.83578 | 151.14908 | 7610 ft | 290 kts | 198° |
| 2026-05-03 20:39 | -33.85536 | 151.14275 | 7293 ft | 293 kts | 197° |
| 2026-05-03 20:39 | -33.87490 | 151.13678 | 7027 ft | 293 kts | 197° |
| 2026-05-03 20:40 | -33.89475 | 151.13091 | 6785 ft | 294 kts | 197° |
| 2026-05-03 20:40 | -33.91464 | 151.12512 | 6524 ft | 294 kts | 196° |
| 2026-05-03 20:40 | -33.93453 | 151.11937 | 6293 ft | 293 kts | 196° |
| 2026-05-03 20:40 | -33.94765 | 151.11558 | 6146 ft | 292 kts | 196° |
| 2026-05-03 20:41 | -33.96720 | 151.10995 | 6066 ft | 287 kts | 196° |
| 2026-05-03 20:41 | -33.98670 | 151.10432 | 6008 ft | 289 kts | 196° |
| 2026-05-03 20:41 | -34.00636 | 151.09863 | 6013 ft | 292 kts | 196° |
| 2026-05-03 20:41 | -34.02617 | 151.09291 | 6006 ft | 293 kts | 197° |
| 2026-05-03 20:42 | -34.04563 | 151.08729 | 5987 ft | 280 kts | 197° |
| 2026-05-03 20:42 | -34.06408 | 151.08198 | 5979 ft | 265 kts | 197° |
| 2026-05-03 20:42 | -34.08195 | 151.07798 | 5982 ft | 264 kts | 182° |
| 2026-05-03 20:42 | -34.10008 | 151.08153 | 6016 ft | 270 kts | 166° |
| 2026-05-03 20:43 | -34.11842 | 151.08693 | 5920 ft | 271 kts | 168° |
| 2026-05-03 20:43 | -34.13672 | 151.09187 | 5684 ft | 266 kts | 169° |
| 2026-05-03 20:43 | -34.15470 | 151.09659 | 5343 ft | 264 kts | 168° |
| 2026-05-03 20:43 | -34.17270 | 151.10127 | 4941 ft | 265 kts | 169° |
| 2026-05-03 20:44 | -34.19054 | 151.10590 | 4678 ft | 258 kts | 169° |
| 2026-05-03 20:44 | -34.20767 | 151.11078 | 4429 ft | 247 kts | 160° |
| 2026-05-03 20:44 | -34.22158 | 151.12193 | 4090 ft | 237 kts | 124° |
| 2026-05-03 20:44 | -34.22801 | 151.13914 | 3832 ft | 217 kts | 88° |
| 2026-05-03 20:45 | -34.22681 | 151.15672 | 3695 ft | 211 kts | 73° |
| 2026-05-03 20:45 | -34.22415 | 151.17444 | 3546 ft | 218 kts | 73° |
| 2026-05-03 20:45 | -34.22078 | 151.19221 | 3364 ft | 211 kts | 58° |
| 2026-05-03 20:45 | -34.21204 | 151.20498 | 3178 ft | 194 kts | 30° |
| 2026-05-03 20:46 | -34.20088 | 151.21393 | 3102 ft | 191 kts | 28° |
| 2026-05-03 20:46 | -34.18973 | 151.22280 | 3065 ft | 194 kts | 28° |
| 2026-05-03 20:46 | -34.17793 | 151.23034 | 2998 ft | 188 kts | 8° |
| 2026-05-03 20:46 | -34.16556 | 151.22993 | 3029 ft | 172 kts | 353° |
| 2026-05-03 20:47 | -34.15373 | 151.22857 | 2986 ft | 169 kts | 352° |
| 2026-05-03 20:47 | -34.14217 | 151.22655 | 2999 ft | 167 kts | 349° |
| 2026-05-03 20:47 | -34.13084 | 151.22395 | 3003 ft | 166 kts | 347° |
| 2026-05-03 20:47 | -34.11947 | 151.22111 | 2996 ft | 166 kts | 347° |
| 2026-05-03 20:48 | -34.10851 | 151.21829 | 2879 ft | 159 kts | 346° |
| 2026-05-03 20:48 | -34.09815 | 151.21559 | 2681 ft | 150 kts | 346° |
| 2026-05-03 20:48 | -34.08824 | 151.21300 | 2488 ft | 142 kts | 346° |
| 2026-05-03 20:48 | -34.07847 | 151.21044 | 2327 ft | 144 kts | 346° |
| 2026-05-03 20:49 | -34.06865 | 151.20788 | 2119 ft | 144 kts | 346° |
| 2026-05-03 20:49 | -34.05891 | 151.20533 | 1939 ft | 144 kts | 347° |
| 2026-05-03 20:49 | -34.04904 | 151.20276 | 1737 ft | 145 kts | 346° |
| 2026-05-03 20:49 | -34.03956 | 151.20028 | 1541 ft | 132 kts | 346° |
| 2026-05-03 20:50 | -34.03090 | 151.19803 | 1405 ft | 126 kts | 346° |
| 2026-05-03 20:50 | -34.02221 | 151.19558 | 1204 ft | 129 kts | 347° |
| 2026-05-03 20:50 | -34.01345 | 151.19349 | 1048 ft | 126 kts | 351° |
| 2026-05-03 20:50 | -34.00477 | 151.19130 | 892 ft | 133 kts | 345° |
| 2026-05-03 20:51 | -33.99564 | 151.18871 | 726 ft | 135 kts | 348° |
| 2026-05-03 20:51 | -33.98660 | 151.18635 | 540 ft | 137 kts | 348° |
| 2026-05-03 20:51 | -33.97716 | 151.18395 | 353 ft | 139 kts | 347° |
| 2026-05-03 20:51 | -33.96766 | 151.18150 | 149 ft | 141 kts | 346° |
| 2026-05-03 20:52 | -33.95822 | 151.17906 | 34 ft | 132 kts | 349° |
| 2026-05-03 20:52 | -33.95094 | 151.17718 | 32 ft | 80 kts | 347° |
| 2026-05-03 20:52 | -33.94749 | 151.17627 | 34 ft | 29 kts | 348° |
| 2026-05-03 20:52 | -33.94559 | 151.17557 | 35 ft | 29 kts | 336° |
| 2026-05-03 20:53 | -33.94418 | 151.17452 | 34 ft | 14 kts | 320° |
| 2026-05-03 20:53 | -33.94346 | 151.17376 | 34 ft | 13 kts | 318° |
| 2026-05-03 20:53 | -33.94292 | 151.17319 | 34 ft | 11 kts | 320° |
| 2026-05-03 20:53 | -33.94219 | 151.17289 | 33 ft | 12 kts | 347° |
| 2026-05-03 20:54 | -33.94131 | 151.17266 | 33 ft | 14 kts | 348° |
| 2026-05-03 20:54 | -33.93987 | 151.17222 | 34 ft | 7 kts | 319° |
| 2026-05-03 20:54 | -33.93985 | 151.17163 | 34 ft | 8 kts | 254° |
| 2026-05-03 20:55 | -33.94000 | 151.17098 | 34 ft | 9 kts | 253° |
| 2026-05-03 20:55 | -33.94018 | 151.17025 | 34 ft | 10 kts | 254° |
| 2026-05-03 20:55 | -33.94037 | 151.16943 | 34 ft | 11 kts | 254° |
| 2026-05-03 20:55 | -33.94056 | 151.16864 | 34 ft | 7 kts | 254° |
| 2026-05-03 20:56 | -33.94043 | 151.16813 | 35 ft | 7 kts | 328° |
| 2026-05-03 20:56 | -33.93992 | 151.16795 | 35 ft | 8 kts | 345° |
| 2026-05-03 20:56 | -33.93940 | 151.16778 | 35 ft | 5 kts | 345° |
| 2026-05-03 20:56 | -33.93909 | 151.16787 | 35 ft | 5 kts | 53° |
| 2026-05-03 20:57 | -33.93898 | 151.16829 | 35 ft | 3 kts | 75° |
| 2026-05-03 20:57 | -33.93893 | 151.16851 | 35 ft | 3 kts | 75° |
| 2026-05-03 20:57 | -33.93890 | 151.16863 | 35 ft | 0 kts | 75° |